createdAt,value
2022-09-07T00:02:05.568Z,51.88
2022-09-07T00:04:32.340Z,52.26
2022-09-07T00:06:59.071Z,52.10
2022-09-07T00:09:25.835Z,53.55
2022-09-07T00:11:52.497Z,53.14
2022-09-07T00:14:19.211Z,52.39
2022-09-07T00:16:45.937Z,52.62
2022-09-07T00:19:14.184Z,52.14
2022-09-07T00:21:40.990Z,52.73
2022-09-07T00:24:07.739Z,52.53
2022-09-07T00:26:34.388Z,53.21
2022-09-07T00:29:03.676Z,53.03
2022-09-07T00:31:31.091Z,52.51
2022-09-07T00:34:00.534Z,52.52
2022-09-07T00:36:27.861Z,52.59
2022-09-07T00:38:55.260Z,52.71
2022-09-07T00:41:23.033Z,52.82
2022-09-07T00:43:55.606Z,53.08
2022-09-07T00:46:27.561Z,53.06
2022-09-07T00:49:00.601Z,51.98
2022-09-07T00:51:42.532Z,52.06
2022-09-07T00:54:17.420Z,52.31
2022-09-07T00:56:45.196Z,52.89
2022-09-07T00:59:15.826Z,53.01
2022-09-07T01:01:42.877Z,52.69
2022-09-07T01:04:09.935Z,53.46
2022-09-07T01:06:39.660Z,53.28
2022-09-07T01:09:18.741Z,53.60
2022-09-07T01:11:51.148Z,53.57
2022-09-07T01:14:29.036Z,53.71
2022-09-07T01:17:14.532Z,53.38
2022-09-07T01:20:09.013Z,53.64
2022-09-07T01:23:03.769Z,53.50
2022-09-07T01:25:39.730Z,53.64
2022-09-07T01:28:29.258Z,53.93
2022-09-07T01:31:09.716Z,54.30
2022-09-07T01:34:07.148Z,54.21
2022-09-07T01:36:40.771Z,53.80
2022-09-07T01:39:08.303Z,53.65
2022-09-07T01:41:53.767Z,54.13
2022-09-07T01:44:20.524Z,53.93
2022-09-07T01:47:01.578Z,53.33
2022-09-07T01:49:46.136Z,53.62
2022-09-07T01:52:38.332Z,54.29
2022-09-07T01:55:05.023Z,54.08
2022-09-07T01:57:43.250Z,52.30
2022-09-07T02:00:15.485Z,52.93
2022-09-07T02:02:53.232Z,54.13
2022-09-07T02:05:23.853Z,51.99
2022-09-07T02:08:03.380Z,51.22
2022-09-07T02:11:00.685Z,51.38
2022-09-07T02:13:35.697Z,52.98
2022-09-07T02:16:09.479Z,51.29
2022-09-07T02:18:44.563Z,51.74
2022-09-07T02:21:13.377Z,51.88
2022-09-07T02:23:58.066Z,51.78
2022-09-07T02:26:28.812Z,52.33
2022-09-07T02:28:56.070Z,53.62
2022-09-07T02:31:23.122Z,52.14
2022-09-07T02:33:50.106Z,51.57
2022-09-07T02:36:21.145Z,51.74
2022-09-07T02:38:47.827Z,53.10
2022-09-07T02:41:38.412Z,51.64
2022-09-07T02:44:14.133Z,52.20
2022-09-07T02:46:59.576Z,53.35
2022-09-07T02:49:38.200Z,52.20
2022-09-07T02:52:07.685Z,52.31
2022-09-07T02:54:56.113Z,53.32
2022-09-07T02:57:41.534Z,53.62
2022-09-07T03:00:20.913Z,52.19
2022-09-07T03:03:14.802Z,52.18
2022-09-07T03:05:55.433Z,53.59
2022-09-07T03:08:28.824Z,52.35
2022-09-07T03:10:57.711Z,52.15
2022-09-07T03:13:27.514Z,51.43
2022-09-07T03:15:56.282Z,50.98
2022-09-07T03:18:24.309Z,51.23
2022-09-07T03:20:51.327Z,51.58
2022-09-07T03:23:18.111Z,52.62
2022-09-07T03:25:45.428Z,51.83
2022-09-07T03:28:12.279Z,52.96
2022-09-07T03:30:43.381Z,53.39
2022-09-07T03:33:11.366Z,52.45
2022-09-07T03:35:38.161Z,53.30
2022-09-07T03:38:04.899Z,53.65
2022-09-07T03:40:31.606Z,53.81
2022-09-07T03:42:58.370Z,54.05
2022-09-07T03:45:26.691Z,54.10
2022-09-07T03:47:53.352Z,54.75
2022-09-07T03:50:20.063Z,55.02
2022-09-07T03:52:46.770Z,54.62
2022-09-07T03:55:13.509Z,55.05
2022-09-07T03:57:40.512Z,55.67
2022-09-07T04:00:08.392Z,55.41
2022-09-07T04:02:36.537Z,55.23
2022-09-07T04:05:03.421Z,53.79
2022-09-07T04:07:30.186Z,54.53
2022-09-07T04:09:57.607Z,55.67
2022-09-07T04:12:26.166Z,54.30
2022-09-07T04:14:52.902Z,55.32
2022-09-07T04:17:19.618Z,55.28
2022-09-07T04:19:46.343Z,56.00
2022-09-07T04:22:13.013Z,55.54
2022-09-07T04:24:39.702Z,54.95
2022-09-07T04:27:06.461Z,54.03
2022-09-07T04:29:33.232Z,55.03
2022-09-07T04:31:59.919Z,53.87
2022-09-07T04:34:26.719Z,53.39
2022-09-07T04:36:53.628Z,54.93
2022-09-07T04:39:20.344Z,54.00
2022-09-07T04:41:48.161Z,54.00
2022-09-07T04:44:16.923Z,55.04
2022-09-07T04:46:43.974Z,55.41
2022-09-07T04:49:12.821Z,55.65
2022-09-07T04:51:40.353Z,55.75
2022-09-07T04:54:07.412Z,53.45
2022-09-07T04:56:34.150Z,55.36
2022-09-07T04:59:01.896Z,54.09
2022-09-07T05:01:28.689Z,55.04
2022-09-07T05:03:55.525Z,55.85
2022-09-07T05:06:23.357Z,55.88
2022-09-07T05:08:52.430Z,56.56
2022-09-07T05:11:24.948Z,57.70
2022-09-07T05:13:59.143Z,57.70
2022-09-07T05:16:26.707Z,57.50
2022-09-07T05:18:56.847Z,57.54
2022-09-07T05:21:26.643Z,56.68
2022-09-07T05:23:55.575Z,55.82
2022-09-07T05:26:24.215Z,55.74
2022-09-07T05:28:51.081Z,55.68
2022-09-07T05:31:23.026Z,55.45
2022-09-07T05:36:41.443Z,55.84
2022-09-07T05:39:09.140Z,55.62
2022-09-07T05:41:36.150Z,55.06
2022-09-07T05:46:51.726Z,55.49
2022-09-07T05:49:18.468Z,56.21
2022-09-07T05:51:45.229Z,55.75
2022-09-07T05:54:12.239Z,54.98
2022-09-07T05:56:39.256Z,54.64
2022-09-07T05:59:06.209Z,56.13
2022-09-07T06:01:35.387Z,53.88
2022-09-07T06:04:02.497Z,53.98
2022-09-07T06:06:29.547Z,54.28
2022-09-07T06:08:57.825Z,54.45
2022-09-07T06:11:26.411Z,55.77
2022-09-07T06:13:53.531Z,54.81
2022-09-07T06:16:20.898Z,55.25
2022-09-07T06:18:49.832Z,55.52
2022-09-07T06:21:23.791Z,54.03
2022-09-07T06:23:51.515Z,54.13
2022-09-07T06:26:20.328Z,54.85
2022-09-07T06:28:49.834Z,55.37
2022-09-07T06:31:22.972Z,54.18
2022-09-07T06:33:51.017Z,53.50
2022-09-07T06:36:18.701Z,54.30
2022-09-07T06:38:47.054Z,53.88
2022-09-07T06:44:12.473Z,53.88
2022-09-07T06:49:26.520Z,53.64
2022-09-07T06:51:53.356Z,53.44
2022-09-07T06:57:09.781Z,52.61
2022-09-07T06:59:37.554Z,54.02
2022-09-07T07:02:05.893Z,52.94
2022-09-07T07:04:39.507Z,53.71
2022-09-07T07:07:11.175Z,53.38
2022-09-07T07:09:38.278Z,52.70
2022-09-07T07:12:05.031Z,52.28
2022-09-07T07:14:34.403Z,53.79
2022-09-07T07:17:02.342Z,53.43
2022-09-07T07:19:29.197Z,53.98
2022-09-07T07:22:29.629Z,52.91
2022-09-07T07:24:42.858Z,52.88
2022-09-07T07:27:09.737Z,52.06
2022-09-07T07:29:36.707Z,52.76
2022-09-07T07:32:04.408Z,53.03
2022-09-07T07:34:31.302Z,52.10
2022-09-07T07:36:58.205Z,51.80
2022-09-07T07:42:12.617Z,49.75
2022-09-07T07:44:39.367Z,51.47
2022-09-07T07:47:06.312Z,51.50
2022-09-07T07:49:33.166Z,51.05
2022-09-07T07:54:46.859Z,51.58
2022-09-07T07:57:14.323Z,50.64
2022-09-07T07:59:41.097Z,51.37
2022-09-07T08:02:13.862Z,51.40
2022-09-07T08:04:40.746Z,51.81
2022-09-07T08:07:10.775Z,52.01
2022-09-07T08:09:42.200Z,51.88
2022-09-07T08:12:11.434Z,52.50
2022-09-07T08:14:42.721Z,52.08
2022-09-07T08:17:14.199Z,52.69
2022-09-07T08:19:48.246Z,52.64
2022-09-07T08:22:14.839Z,52.20
2022-09-07T08:24:41.435Z,52.42
2022-09-07T08:27:08.398Z,53.93
2022-09-07T08:29:35.693Z,54.74
2022-09-07T08:32:04.521Z,54.67
2022-09-07T08:34:31.269Z,53.98
2022-09-07T08:36:58.087Z,54.92
2022-09-07T08:39:25.234Z,55.28
2022-09-07T08:41:51.740Z,56.48
2022-09-07T08:44:47.646Z,56.30
2022-09-07T08:47:28.645Z,55.95
2022-09-07T08:50:10.384Z,55.80
2022-09-07T08:52:42.821Z,55.75
2022-09-07T08:55:32.467Z,56.91
2022-09-07T08:58:05.098Z,55.17
2022-09-07T09:00:31.726Z,56.02
2022-09-07T09:05:51.830Z,55.82
2022-09-07T09:08:27.415Z,55.93
2022-09-07T09:11:10.884Z,59.29
2022-09-07T09:14:10.131Z,59.28
2022-09-07T09:16:55.497Z,59.23
2022-09-07T09:19:39.543Z,58.91
2022-09-07T09:22:18.899Z,61.02
2022-09-07T09:24:54.652Z,60.40
2022-09-07T09:27:21.250Z,59.08
2022-09-07T09:29:47.883Z,57.56
2022-09-07T09:32:33.403Z,60.34
2022-09-07T09:35:21.425Z,57.86
2022-09-07T09:37:47.971Z,56.71
2022-09-07T09:40:19.111Z,58.79
2022-09-07T09:42:47.234Z,59.07
2022-09-07T09:45:22.296Z,57.12
2022-09-07T09:47:51.212Z,56.83
2022-09-07T09:53:35.160Z,56.26
2022-09-07T09:56:04.609Z,54.75
2022-09-07T10:04:36.943Z,57.21
2022-09-07T10:07:13.416Z,56.73
2022-09-07T10:09:43.714Z,54.30
2022-09-07T10:12:31.121Z,56.88
2022-09-07T10:15:00.958Z,54.55
2022-09-07T10:17:43.915Z,55.93
2022-09-07T10:20:20.073Z,55.62
2022-09-07T10:22:59.419Z,54.25
2022-09-07T10:25:44.479Z,52.19
2022-09-07T10:28:12.668Z,52.22
2022-09-07T10:31:15.783Z,52.07
2022-09-07T10:34:26.467Z,53.41
2022-09-07T10:37:09.652Z,51.64
2022-09-07T10:39:41.787Z,53.20
2022-09-07T10:42:35.883Z,52.33
2022-09-07T10:45:18.562Z,51.37
2022-09-07T10:48:14.083Z,52.81
2022-09-07T10:51:12.704Z,50.51
2022-09-07T10:57:23.490Z,51.53
2022-09-07T11:00:10.345Z,51.32
2022-09-07T11:06:18.823Z,49.09
2022-09-07T11:12:20.761Z,49.32
2022-09-07T11:15:12.874Z,49.56
2022-09-07T11:17:57.042Z,49.65
2022-09-07T11:20:50.775Z,49.16
2022-09-07T11:23:26.322Z,47.91
2022-09-07T11:26:26.626Z,48.28
2022-09-07T11:31:55.507Z,48.04
2022-09-07T11:34:30.233Z,47.39
2022-09-07T11:37:03.146Z,47.82
2022-09-07T11:39:36.287Z,48.36
2022-09-07T11:45:12.906Z,47.13
2022-09-07T11:47:46.337Z,47.60
2022-09-07T11:50:18.925Z,46.16
2022-09-07T11:53:17.009Z,46.73
2022-09-07T11:55:48.381Z,45.53
2022-09-07T11:58:37.611Z,45.49
2022-09-07T12:01:25.914Z,46.38
2022-09-07T12:04:16.935Z,47.63
2022-09-07T12:06:46.388Z,48.42
2022-09-07T12:09:24.174Z,48.33
2022-09-07T12:12:09.725Z,47.52
2022-09-07T12:15:27.632Z,45.25
2022-09-07T12:18:10.251Z,43.82
2022-09-07T12:20:42.998Z,43.52
2022-09-07T12:23:26.463Z,43.94
2022-09-07T12:26:13.321Z,44.04
2022-09-07T12:28:39.946Z,45.45
2022-09-07T12:31:12.445Z,46.41
2022-09-07T12:33:40.575Z,47.85
2022-09-07T12:36:26.115Z,47.20
2022-09-07T12:39:25.685Z,45.66
2022-09-07T12:45:29.410Z,45.23
2022-09-07T12:48:04.596Z,46.01
2022-09-07T12:50:39.465Z,45.66
2022-09-07T12:53:13.063Z,47.06
2022-09-07T12:58:45.144Z,48.40
2022-09-07T13:01:19.507Z,47.71
2022-09-07T13:04:12.967Z,46.35
2022-09-07T13:07:13.154Z,46.61
2022-09-07T13:09:41.537Z,45.14
2022-09-07T13:15:28.737Z,45.73
2022-09-07T13:17:56.631Z,44.72
2022-09-07T13:20:30.330Z,42.70
2022-09-07T13:23:09.323Z,41.90
2022-09-07T13:25:36.941Z,44.02
2022-09-07T13:28:44.542Z,43.48
2022-09-07T13:31:19.683Z,44.40
2022-09-07T13:33:52.525Z,46.65
2022-09-07T13:36:25.676Z,47.06
2022-09-07T13:38:54.572Z,48.84
2022-09-07T13:41:26.282Z,48.56
2022-09-07T13:43:57.724Z,47.53
2022-09-07T13:46:48.021Z,47.75
2022-09-07T13:49:28.906Z,48.22
2022-09-07T13:52:05.886Z,48.42
2022-09-07T13:55:03.227Z,47.98
2022-09-07T13:57:52.929Z,47.63
2022-09-07T14:00:23.035Z,48.29
2022-09-07T14:02:56.699Z,48.86
2022-09-07T14:05:25.018Z,48.68
2022-09-07T14:07:53.800Z,48.70
2022-09-07T14:10:26.212Z,49.15
2022-09-07T14:13:05.887Z,49.64
2022-09-07T14:15:39.484Z,50.62
2022-09-07T14:18:22.551Z,48.54
2022-09-07T14:20:52.503Z,48.38
2022-09-07T14:23:34.885Z,48.70
2022-09-07T14:26:18.713Z,49.04
2022-09-07T14:28:54.177Z,49.61
2022-09-07T14:31:23.335Z,49.87
2022-09-07T14:33:54.684Z,50.16
2022-09-07T14:36:45.479Z,50.97
2022-09-07T14:39:16.082Z,51.06
2022-09-07T14:41:44.165Z,49.48
2022-09-07T14:44:31.900Z,50.15
2022-09-07T14:47:07.629Z,50.49
2022-09-07T14:49:34.978Z,49.34
2022-09-07T14:52:02.050Z,50.06
2022-09-07T14:54:34.198Z,49.92
2022-09-07T14:57:05.749Z,50.90
2022-09-07T14:59:41.890Z,50.60
2022-09-07T15:02:28.366Z,50.72
2022-09-07T15:05:23.237Z,51.08
2022-09-07T15:07:58.865Z,51.27
2022-09-07T15:10:25.746Z,51.61
2022-09-07T15:12:57.525Z,52.69
2022-09-07T15:15:26.685Z,51.85
2022-09-07T15:18:03.158Z,51.76
2022-09-07T15:20:44.022Z,50.84
2022-09-07T15:23:15.698Z,50.79
2022-09-07T15:25:48.227Z,50.81
2022-09-07T15:34:02.393Z,51.39
2022-09-07T15:36:32.001Z,51.50
2022-09-07T15:39:01.138Z,51.88
2022-09-07T15:41:29.595Z,51.90
2022-09-07T15:43:57.785Z,51.68
2022-09-07T15:46:25.025Z,52.15
2022-09-07T15:49:12.556Z,51.58
2022-09-07T15:54:29.859Z,52.53
2022-09-07T15:59:45.238Z,51.75
2022-09-07T16:04:58.534Z,51.70
2022-09-07T16:08:24.855Z,51.53
2022-09-07T16:10:12.448Z,51.71
2022-09-07T16:15:26.994Z,52.82
2022-09-07T16:17:54.081Z,51.77
2022-09-07T16:20:20.873Z,52.55
2022-09-07T16:25:35.204Z,52.33
2022-09-07T16:28:02.429Z,52.40
2022-09-07T16:30:29.090Z,52.26
2022-09-07T16:32:56.003Z,52.34
2022-09-07T16:35:23.122Z,52.53
2022-09-07T16:40:44.420Z,52.33
2022-09-07T16:43:11.287Z,52.48
2022-09-07T16:48:24.600Z,52.52
2022-09-07T16:50:55.420Z,52.76
2022-09-07T16:53:25.847Z,52.64
2022-09-07T16:55:53.362Z,52.75
2022-09-07T16:58:37.904Z,52.69
2022-09-07T17:03:39.480Z,52.45
2022-09-07T17:06:09.206Z,52.40
2022-09-07T17:08:37.593Z,55.19
2022-09-07T17:11:09.893Z,53.19
2022-09-07T17:13:38.831Z,54.89
2022-09-07T17:16:10.486Z,53.46
2022-09-07T17:21:28.685Z,55.18
2022-09-07T17:23:56.137Z,57.46
2022-09-07T17:26:26.723Z,56.24
2022-09-07T17:29:00.417Z,58.65
2022-09-07T17:34:23.744Z,62.14
2022-09-07T17:36:51.299Z,62.72
2022-09-07T17:39:19.312Z,66.69
2022-09-07T17:41:47.765Z,68.32
2022-09-07T17:44:15.426Z,66.92
2022-09-07T17:46:42.302Z,72.18
2022-09-07T17:49:12.235Z,75.15
2022-09-07T17:51:39.546Z,70.99
2022-09-07T17:54:11.145Z,74.18
2022-09-07T17:56:39.248Z,67.37
2022-09-07T18:01:54.216Z,71.30
2022-09-07T18:04:21.687Z,71.94
2022-09-07T18:06:48.738Z,75.10
2022-09-07T18:09:15.766Z,74.37
2022-09-07T18:11:46.693Z,76.06
2022-09-07T18:14:14.798Z,70.73
2022-09-07T18:16:43.526Z,65.41
2022-09-07T18:19:11.274Z,63.31
2022-09-07T18:21:39.279Z,64.69
2022-09-07T18:24:13.529Z,60.98
2022-09-07T18:26:40.849Z,60.56
2022-09-07T18:29:25.884Z,61.30
2022-09-07T18:31:55.232Z,64.43
2022-09-07T18:34:22.393Z,62.72
2022-09-07T18:36:49.955Z,62.02
2022-09-07T18:39:20.564Z,63.23
2022-09-07T18:41:47.247Z,65.13
2022-09-07T18:47:08.587Z,64.96
2022-09-07T18:49:37.442Z,67.22
2022-09-07T18:54:51.205Z,63.17
2022-09-07T18:57:18.107Z,64.65
2022-09-07T18:59:49.248Z,63.83
2022-09-07T19:02:21.741Z,63.17
2022-09-07T19:07:42.033Z,67.73
2022-09-07T19:10:11.566Z,65.70
2022-09-07T19:12:43.750Z,60.87
2022-09-07T19:15:12.729Z,60.49
2022-09-07T19:17:39.579Z,62.29
2022-09-07T19:20:08.121Z,63.45
2022-09-07T19:22:35.154Z,64.05
2022-09-07T19:25:02.515Z,66.40
2022-09-07T19:27:29.222Z,64.63
2022-09-07T19:29:56.923Z,66.21
2022-09-07T19:32:25.591Z,65.69
2022-09-07T19:34:55.852Z,66.57
2022-09-07T19:37:27.540Z,64.65
2022-09-07T19:39:57.407Z,64.67
2022-09-07T19:42:24.945Z,62.06
2022-09-07T19:44:53.208Z,63.42
2022-09-07T19:47:20.605Z,64.26
2022-09-07T19:49:47.632Z,65.84
2022-09-07T19:52:14.260Z,67.13
2022-09-07T19:54:42.422Z,66.72
2022-09-07T19:57:09.932Z,67.11
2022-09-07T19:59:37.889Z,66.84
2022-09-07T20:02:04.993Z,67.40
2022-09-07T20:04:31.986Z,66.61
2022-09-07T20:06:58.811Z,68.59
2022-09-07T20:09:26.016Z,68.97
2022-09-07T20:11:54.187Z,68.19
2022-09-07T20:14:20.978Z,68.10
2022-09-07T20:16:48.904Z,67.33
2022-09-07T20:19:15.500Z,66.29
2022-09-07T20:21:42.814Z,66.65
2022-09-07T20:24:12.786Z,66.39
2022-09-07T20:26:40.179Z,62.35
2022-09-07T20:29:26.893Z,66.45
2022-09-07T20:31:56.924Z,67.09
2022-09-07T20:34:25.323Z,66.15
2022-09-07T20:36:52.545Z,66.72
2022-09-07T20:39:19.740Z,67.46
2022-09-07T20:41:48.514Z,68.96
2022-09-07T20:44:16.077Z,68.84
2022-09-07T20:46:44.042Z,67.93
2022-09-07T20:49:11.008Z,67.89
2022-09-07T20:51:39.015Z,68.98
2022-09-07T20:54:05.694Z,69.39
2022-09-07T20:56:32.304Z,69.70
2022-09-07T20:59:00.707Z,70.08
2022-09-07T21:01:28.487Z,68.88
2022-09-07T21:03:58.000Z,69.24
2022-09-07T21:06:26.219Z,68.65
2022-09-07T21:08:53.615Z,69.53
2022-09-07T21:11:24.543Z,69.51
2022-09-07T21:13:59.319Z,69.76
2022-09-07T21:16:27.113Z,68.12
2022-09-07T21:18:55.982Z,66.74
2022-09-07T21:21:24.456Z,64.00
2022-09-07T21:23:56.777Z,65.11
2022-09-07T21:26:25.923Z,66.56
2022-09-07T21:29:01.342Z,66.36
2022-09-07T21:31:29.745Z,65.84
2022-09-07T21:33:58.530Z,64.77
2022-09-07T21:36:27.646Z,65.39
2022-09-07T21:38:54.975Z,65.32
2022-09-07T21:41:23.287Z,64.96
2022-09-07T21:43:54.806Z,64.50
2022-09-07T21:46:21.475Z,66.97
2022-09-07T21:48:48.111Z,67.48
2022-09-07T21:51:15.337Z,68.01
2022-09-07T21:53:43.149Z,67.75
2022-09-07T21:56:13.141Z,67.76
2022-09-07T21:58:40.629Z,68.28
2022-09-07T22:01:15.040Z,68.92
2022-09-07T22:03:41.814Z,69.07
2022-09-07T22:06:09.595Z,69.23
2022-09-07T22:08:38.499Z,67.22
2022-09-07T22:11:07.804Z,65.98
2022-09-07T22:13:35.018Z,64.97
2022-09-07T22:16:01.990Z,64.79
2022-09-07T22:18:30.333Z,66.08
2022-09-07T22:21:09.778Z,65.35
2022-09-07T22:23:39.944Z,62.87
2022-09-07T22:26:07.900Z,62.14
2022-09-07T22:28:36.803Z,64.62
2022-09-07T22:31:17.183Z,63.38
2022-09-07T22:33:45.121Z,63.23
2022-09-07T22:36:22.514Z,65.99
2022-09-07T22:38:57.855Z,66.71
2022-09-07T22:41:30.053Z,67.43
2022-09-07T22:43:57.752Z,67.09
2022-09-07T22:46:27.575Z,66.69
2022-09-07T22:48:56.037Z,66.13
2022-09-07T22:51:24.917Z,64.96
2022-09-07T22:53:51.937Z,66.04
2022-09-07T22:56:22.372Z,67.05
2022-09-07T22:58:51.425Z,67.66
2022-09-07T23:01:19.166Z,66.23
2022-09-07T23:03:46.017Z,67.89
2022-09-07T23:06:40.356Z,66.67
2022-09-07T23:09:17.426Z,64.33
2022-09-07T23:11:45.569Z,63.00
2022-09-07T23:14:20.074Z,64.89
2022-09-07T23:16:47.126Z,65.21
2022-09-07T23:19:15.514Z,65.67
2022-09-07T23:21:42.626Z,67.14
2022-09-07T23:24:15.078Z,66.65
2022-09-07T23:26:42.420Z,66.83
2022-09-07T23:29:11.742Z,66.78
2022-09-07T23:31:38.434Z,67.34
2022-09-07T23:34:05.322Z,67.10
2022-09-07T23:36:32.651Z,68.66
2022-09-07T23:39:00.041Z,69.53
2022-09-07T23:41:27.575Z,66.29
2022-09-07T23:43:55.195Z,66.28
2022-09-07T23:46:22.195Z,66.99
2022-09-07T23:48:50.148Z,65.19
2022-09-07T23:51:22.745Z,65.75
2022-09-07T23:53:50.515Z,64.16
2022-09-07T23:56:17.152Z,64.87
2022-09-07T23:58:43.818Z,65.57
